Time;durP1;ratioP1;P1;durP2;ratioP2;P2;SDS_P1;SDS_P2;PMS_P1;PMS_P2;Temp;Humidity;BMP_temperature;BMP_pressure;BME280_temperature;BME280_humidity;BME280_pressure;Samples;Min_cycle;Max_cycle;Signal;HPM_P1;HPM_P2
2024/02/25 00:01:08;;;;;;;1.00;0.65;;;22.00;71.70;;;;;;4987711;28;20454;-67
2024/02/25 00:03:35;;;;;;;0.90;0.60;;;21.90;71.50;;;;;;5003818;28;20196;-66
2024/02/25 00:06:06;;;;;;;1.50;0.80;;;21.90;71.50;;;;;;5003453;28;20459;-67
2024/02/25 00:08:38;;;;;;;1.53;0.80;;;21.90;71.60;;;;;;5001920;28;20459;-67
2024/02/25 00:11:07;;;;;;;0.90;0.60;;;21.90;71.60;;;;;;5005703;28;20926;-67
2024/02/25 00:13:35;;;;;;;1.30;0.70;;;21.90;71.60;;;;;;5005795;28;20463;-67
2024/02/25 00:16:04;;;;;;;0.90;0.70;;;21.90;71.60;;;;;;5002907;28;20474;-67
2024/02/25 00:18:34;;;;;;;1.13;0.60;;;21.90;71.70;;;;;;5001204;28;20906;-67
2024/02/25 00:21:05;;;;;;;1.10;0.70;;;21.80;71.60;;;;;;5006179;28;20463;-67
2024/02/25 00:23:34;;;;;;;1.10;0.70;;;21.80;71.60;;;;;;5005692;28;20465;-67
2024/02/25 00:26:09;;;;;;;1.90;0.63;;;21.80;71.60;;;;;;5007833;28;20192;-67
2024/02/25 00:28:39;;;;;;;0.90;0.60;;;21.80;71.70;;;;;;5006030;28;20467;-67
2024/02/25 00:31:06;;;;;;;0.90;0.70;;;21.80;71.70;;;;;;5005570;28;20983;-67
2024/02/25 00:33:45;;;;;;;1.00;0.73;;;21.80;71.80;;;;;;5002864;28;20455;-67
2024/02/25 00:36:17;;;;;;;0.90;0.70;;;21.80;71.80;;;;;;5003582;28;20455;-67
2024/02/25 00:38:49;;;;;;;1.10;0.77;;;21.70;71.60;;;;;;5007774;28;20482;-67
2024/02/25 00:41:23;;;;;;;1.10;0.80;;;21.70;71.70;;;;;;5008502;28;20204;-67
2024/02/25 00:43:51;;;;;;;0.90;0.60;;;21.70;71.70;;;;;;5003849;28;20459;-67
2024/02/25 00:46:23;;;;;;;0.90;0.70;;;21.70;71.70;;;;;;5002114;28;20886;-67
2024/02/25 00:48:57;;;;;;;1.37;0.77;;;21.70;71.70;;;;;;5004792;28;20481;-66
2024/02/25 00:51:25;;;;;;;0.95;0.68;;;21.70;71.80;;;;;;5006407;28;20989;-67
2024/02/25 00:53:56;;;;;;;0.90;0.63;;;21.70;71.80;;;;;;5006726;28;20250;-67
2024/02/25 00:56:23;;;;;;;1.47;0.67;;;21.70;71.80;;;;;;5006486;28;22043;-68
2024/02/25 00:58:53;;;;;;;1.27;0.80;;;21.60;71.70;;;;;;5004336;28;20482;-67
2024/02/25 01:01:26;;;;;;;1.00;0.80;;;21.60;71.70;;;;;;5008106;28;20191;-67
2024/02/25 01:03:56;;;;;;;1.30;0.70;;;21.60;71.70;;;;;;5006440;28;20813;-67
2024/02/25 01:06:27;;;;;;;0.97;0.70;;;21.60;71.70;;;;;;5007765;28;20484;-67
2024/02/25 01:08:57;;;;;;;1.20;0.80;;;21.60;71.70;;;;;;5002630;28;20474;-67
2024/02/25 01:11:26;;;;;;;1.00;0.70;;;21.60;71.70;;;;;;5004988;28;21500;-67
2024/02/25 01:13:53;;;;;;;1.00;0.67;;;21.60;71.80;;;;;;5007876;28;20203;-67
2024/02/25 01:16:31;;;;;;;0.90;0.70;;;21.60;71.70;;;;;;5002475;28;20546;-67
2024/02/25 01:19:14;;;;;;;1.00;0.65;;;21.60;71.70;;;;;;5000599;28;20515;-67
2024/02/25 01:21:45;;;;;;;0.82;0.60;;;21.60;71.70;;;;;;5000578;28;20259;-66
2024/02/25 01:24:13;;;;;;;1.10;0.70;;;21.60;71.70;;;;;;5001123;28;20199;-67
2024/02/25 01:26:46;;;;;;;0.80;0.70;;;21.50;71.60;;;;;;5004216;28;20204;-67
2024/02/25 01:29:13;;;;;;;0.95;0.70;;;21.50;71.70;;;;;;5003065;28;20463;-67
2024/02/25 01:31:43;;;;;;;1.08;0.75;;;21.50;71.60;;;;;;5003851;28;20600;-67
2024/02/25 01:34:10;;;;;;;1.00;0.70;;;21.50;71.70;;;;;;5006124;28;20331;-67
2024/02/25 01:36:41;;;;;;;0.90;0.70;;;21.50;71.60;;;;;;5005511;28;20216;-67
2024/02/25 01:39:11;;;;;;;1.10;0.70;;;21.50;71.70;;;;;;5008090;28;20216;-67
2024/02/25 01:41:38;;;;;;;1.13;0.70;;;21.50;71.70;;;;;;5009511;28;20462;-67
2024/02/25 01:44:08;;;;;;;0.90;0.70;;;21.50;71.80;;;;;;5011576;28;20187;-67
2024/02/25 01:46:37;;;;;;;1.00;0.70;;;21.50;71.80;;;;;;5007871;28;20219;-67
2024/02/25 01:49:13;;;;;;;0.97;0.70;;;21.40;71.70;;;;;;5006683;28;20467;-67
2024/02/25 01:51:42;;;;;;;0.90;0.60;;;21.40;71.70;;;;;;5006793;28;20465;-67
2024/02/25 01:54:09;;;;;;;0.93;0.60;;;21.40;71.80;;;;;;5005186;28;20201;-67
2024/02/25 01:56:39;;;;;;;1.00;0.70;;;21.40;71.70;;;;;;5007066;28;20671;-67
2024/02/25 01:59:07;;;;;;;1.00;0.80;;;21.40;71.80;;;;;;5005990;28;20795;-67
2024/02/25 02:01:36;;;;;;;1.00;0.80;;;21.40;71.80;;;;;;5008371;28;20202;-67
2024/02/25 02:04:05;;;;;;;1.00;0.70;;;21.40;71.80;;;;;;5007261;28;20323;-67
2024/02/25 02:06:40;;;;;;;1.00;0.68;;;21.40;71.80;;;;;;5005019;28;20665;-67
2024/02/25 02:09:17;;;;;;;0.82;0.63;;;21.40;71.80;;;;;;5005490;28;20199;-67
2024/02/25 02:11:59;;;;;;;1.00;0.60;;;21.30;71.80;;;;;;5003286;28;20200;-67
2024/02/25 02:14:31;;;;;;;1.55;0.80;;;21.30;71.90;;;;;;5004206;28;20207;-66
2024/02/25 02:17:15;;;;;;;0.90;0.70;;;21.30;71.80;;;;;;5006199;28;20262;-67
2024/02/25 02:19:46;;;;;;;1.00;0.70;;;21.30;71.80;;;;;;5007378;28;20874;-67
2024/02/25 02:22:17;;;;;;;1.10;0.80;;;21.30;71.80;;;;;;5007041;28;20233;-67
2024/02/25 02:24:45;;;;;;;0.90;0.63;;;21.30;71.90;;;;;;5006177;28;20215;-67
2024/02/25 02:27:17;;;;;;;1.23;0.60;;;21.30;71.80;;;;;;5008702;28;20201;-67
2024/02/25 02:29:58;;;;;;;0.90;0.65;;;21.30;72.20;;;;;;5007026;28;20929;-67
2024/02/25 02:32:28;;;;;;;0.88;0.60;;;21.30;71.90;;;;;;5002590;28;20203;-67
2024/02/25 02:35:03;;;;;;;0.90;0.65;;;21.30;71.80;;;;;;5005139;28;20282;-67
2024/02/25 02:37:42;;;;;;;0.90;0.70;;;21.30;71.90;;;;;;5005040;28;20191;-67
2024/02/25 02:40:16;;;;;;;0.90;0.60;;;21.30;71.90;;;;;;5004524;28;21046;-67
2024/02/25 02:42:42;;;;;;;0.90;0.70;;;21.30;71.90;;;;;;5006161;28;20506;-67
2024/02/25 02:45:16;;;;;;;1.20;1.10;;;21.30;71.80;;;;;;5005006;28;20463;-67
2024/02/25 02:47:49;;;;;;;1.17;0.77;;;21.30;71.90;;;;;;5003418;28;20930;-67
2024/02/25 02:50:28;;;;;;;;;;;;;;;;;;;;;
2024/02/25 02:53:00;;;;;;;0.90;0.60;;;21.30;71.80;;;;;;5002303;28;20526;-67
2024/02/25 02:55:41;;;;;;;0.80;0.60;;;21.20;71.80;;;;;;5000891;28;20189;-67
2024/02/25 02:58:13;;;;;;;1.25;0.70;;;21.20;71.90;;;;;;5001758;28;20291;-67
2024/02/25 03:00:43;;;;;;;0.98;0.60;;;21.20;71.80;;;;;;5002605;28;20220;-67
2024/02/25 03:03:16;;;;;;;0.90;0.68;;;21.20;71.90;;;;;;5008579;28;20208;-67
2024/02/25 03:05:43;;;;;;;1.00;0.80;;;21.20;71.90;;;;;;5001125;28;20204;-67
2024/02/25 03:08:12;;;;;;;0.98;0.70;;;21.20;71.80;;;;;;5006740;28;20204;-67
2024/02/25 03:10:48;;;;;;;1.10;0.90;;;21.20;71.90;;;;;;5001584;28;20209;-66
2024/02/25 03:13:16;;;;;;;1.00;0.73;;;21.20;72.00;;;;;;5000746;28;20204;-67
2024/02/25 03:15:50;;;;;;;1.10;0.85;;;21.20;72.00;;;;;;5000373;28;20584;-66
2024/02/25 03:18:20;;;;;;;1.00;0.80;;;21.20;71.90;;;;;;5007480;28;20197;-67
2024/02/25 03:21:05;;;;;;;;;;;;;;;;;;;;;
2024/02/25 03:23:34;;;;;;;0.90;0.70;;;21.20;72.00;;;;;;5006693;28;20212;-67
2024/02/25 03:26:03;;;;;;;0.90;0.60;;;21.20;72.10;;;;;;5004155;28;20564;-67
2024/02/25 03:28:42;;;;;;;0.90;0.60;;;21.20;72.00;;;;;;5009916;28;20219;-68
2024/02/25 03:33:51;;;;;;;0.98;0.70;;;21.20;72.00;;;;;;5004938;28;20572;-67
2024/02/25 03:36:21;;;;;;;1.40;0.70;;;21.10;71.90;;;;;;5002435;28;20211;-67
2024/02/25 03:38:49;;;;;;;1.02;0.80;;;21.10;72.00;;;;;;5004770;28;20323;-67
2024/02/25 03:41:24;;;;;;;0.90;0.60;;;21.10;72.00;;;;;;5005249;28;20227;-66
2024/02/25 03:44:00;;;;;;;1.00;0.77;;;21.10;72.10;;;;;;5007559;28;20218;-67
2024/02/25 03:46:32;;;;;;;1.00;0.73;;;21.10;72.00;;;;;;5008225;28;20185;-67
2024/02/25 03:49:02;;;;;;;0.95;0.70;;;21.10;72.10;;;;;;5005033;28;20195;-67
2024/02/25 03:51:29;;;;;;;1.00;0.80;;;21.10;72.00;;;;;;5007405;28;20332;-67
2024/02/25 03:54:01;;;;;;;1.00;0.70;;;21.10;72.10;;;;;;5007149;28;20192;-67
2024/02/25 03:56:34;;;;;;;0.90;0.70;;;21.10;72.10;;;;;;5008490;28;20728;-66
2024/02/25 03:59:06;;;;;;;0.90;0.60;;;21.10;72.20;;;;;;5009760;28;20691;-66
2024/02/25 04:04:24;;;;;;;1.15;0.70;;;21.20;72.30;;;;;;5004412;28;20200;-67
2024/02/25 04:07:02;;;;;;;1.00;0.60;;;21.10;72.20;;;;;;5003345;28;20664;-67
2024/02/25 04:09:36;;;;;;;0.88;0.60;;;21.10;72.40;;;;;;4999310;28;20294;-67
2024/02/25 04:12:11;;;;;;;1.92;0.98;;;21.10;72.40;;;;;;5002462;28;20207;-67
2024/02/25 04:14:39;;;;;;;0.90;0.60;;;21.00;72.10;;;;;;5002920;28;20569;-67
2024/02/25 04:17:08;;;;;;;1.98;0.75;;;21.10;72.40;;;;;;5005465;28;20206;-66
2024/02/25 04:19:39;;;;;;;0.80;0.60;;;21.00;72.10;;;;;;5003756;28;20192;-67
2024/02/25 04:22:07;;;;;;;0.93;0.60;;;21.10;72.30;;;;;;5004367;28;20195;-67
2024/02/25 04:24:37;;;;;;;0.98;0.65;;;21.00;72.30;;;;;;5005560;28;20195;-67
2024/02/25 04:27:06;;;;;;;2.00;1.60;;;21.00;72.20;;;;;;5004483;28;20191;-67
2024/02/25 04:29:37;;;;;;;1.80;0.70;;;21.00;72.10;;;;;;5004958;28;20275;-67
2024/02/25 04:32:04;;;;;;;0.80;0.60;;;21.00;72.30;;;;;;5009233;28;20203;-67
2024/02/25 04:34:36;;;;;;;1.00;0.70;;;21.00;72.30;;;;;;5003458;28;20207;-67
2024/02/25 04:37:09;;;;;;;0.90;0.60;;;21.00;72.30;;;;;;5009172;28;20300;-67
2024/02/25 04:39:42;;;;;;;1.13;0.70;;;21.00;72.30;;;;;;5002057;28;20200;-67
2024/02/25 04:42:11;;;;;;;0.90;0.68;;;21.00;72.40;;;;;;5001002;28;20250;-67
2024/02/25 04:44:41;;;;;;;0.88;0.60;;;21.00;72.30;;;;;;5006423;28;20192;-68
2024/02/25 04:47:08;;;;;;;0.95;0.65;;;21.00;72.30;;;;;;5000615;28;20192;-68
2024/02/25 04:49:37;;;;;;;1.10;0.80;;;21.00;72.40;;;;;;5000528;28;20196;-67
2024/02/25 04:52:15;;;;;;;0.90;0.70;;;21.00;72.50;;;;;;5001540;28;20671;-67
2024/02/25 04:54:46;;;;;;;0.90;0.60;;;21.00;72.50;;;;;;4997555;28;20489;-67
2024/02/25 04:57:19;;;;;;;1.10;0.60;;;21.00;72.60;;;;;;5004471;28;20652;-67
2024/02/25 04:59:48;;;;;;;0.80;0.60;;;21.00;72.50;;;;;;5006421;28;20307;-67
2024/02/25 05:02:16;;;;;;;0.90;0.60;;;21.00;72.60;;;;;;5006351;28;20196;-67
2024/02/25 05:04:47;;;;;;;0.80;0.60;;;21.00;72.50;;;;;;4999430;28;20216;-67
2024/02/25 05:07:15;;;;;;;0.90;0.60;;;21.00;72.50;;;;;;5004520;28;20200;-67
2024/02/25 05:09:44;;;;;;;1.30;0.60;;;21.00;72.60;;;;;;5006736;28;20199;-67
2024/02/25 05:12:22;;;;;;;1.00;0.70;;;20.90;72.50;;;;;;5005133;28;20204;-67
2024/02/25 05:14:51;;;;;;;0.90;0.73;;;20.90;72.30;;;;;;5005468;28;20206;-67
2024/02/25 05:17:18;;;;;;;1.08;0.70;;;20.90;73.20;;;;;;5005778;28;20501;-67
2024/02/25 05:19:47;;;;;;;1.00;0.65;;;20.90;72.50;;;;;;5003131;28;20257;-67
2024/02/25 05:22:20;;;;;;;1.20;0.80;;;20.90;72.60;;;;;;5009010;28;20282;-67
2024/02/25 05:24:51;;;;;;;1.00;0.60;;;20.90;72.60;;;;;;5005307;28;20208;-67
2024/02/25 05:27:22;;;;;;;1.05;0.80;;;20.90;72.60;;;;;;5011741;28;20195;-67
2024/02/25 05:29:51;;;;;;;1.55;0.70;;;21.00;72.60;;;;;;5011335;28;20869;-67
2024/02/25 05:32:19;;;;;;;0.90;0.68;;;20.90;72.50;;;;;;5009343;28;20211;-66
2024/02/25 05:34:46;;;;;;;1.27;0.60;;;20.90;72.60;;;;;;5007059;28;20848;-66
2024/02/25 05:37:18;;;;;;;1.48;0.60;;;20.90;72.60;;;;;;5006242;28;20212;-67
2024/02/25 05:39:44;;;;;;;1.00;0.68;;;20.90;72.70;;;;;;5008945;28;20200;-67
2024/02/25 05:42:14;;;;;;;0.98;0.70;;;20.90;72.60;;;;;;5006746;28;20215;-67
2024/02/25 05:44:50;;;;;;;0.90;0.60;;;20.90;72.70;;;;;;5009155;28;20641;-67
2024/02/25 05:47:20;;;;;;;0.90;0.63;;;20.90;72.60;;;;;;5008086;28;20199;-67
2024/02/25 05:49:51;;;;;;;1.15;1.05;;;20.90;72.70;;;;;;5008646;28;20205;-67
2024/02/25 05:52:23;;;;;;;1.00;0.60;;;20.90;72.70;;;;;;5008455;28;20290;-67
2024/02/25 05:55:04;;;;;;;0.90;0.70;;;20.90;72.70;;;;;;5002244;28;20218;-67
2024/02/25 05:57:33;;;;;;;1.20;0.70;;;20.90;72.80;;;;;;5007956;28;20662;-67
2024/02/25 06:00:04;;;;;;;0.93;0.68;;;20.90;72.80;;;;;;5007726;28;20226;-67
2024/02/25 06:02:34;;;;;;;1.00;0.70;;;20.90;72.90;;;;;;5004102;28;20727;-67
2024/02/25 06:05:09;;;;;;;0.80;0.60;;;20.90;72.90;;;;;;4999526;28;20534;-67
2024/02/25 06:07:44;;;;;;;0.85;0.60;;;20.90;72.90;;;;;;5005099;28;20202;-68
2024/02/25 06:10:12;;;;;;;0.90;0.60;;;20.90;72.80;;;;;;5005664;28;20315;-67
2024/02/25 06:12:38;;;;;;;0.80;0.50;;;20.90;72.70;;;;;;5002205;28;20233;-67
2024/02/25 06:15:11;;;;;;;0.90;0.60;;;20.90;72.70;;;;;;5003859;28;20273;-67
2024/02/25 06:17:39;;;;;;;0.90;0.70;;;20.90;72.80;;;;;;5004757;28;20653;-67
2024/02/25 06:20:15;;;;;;;0.90;0.60;;;20.90;73.70;;;;;;4994195;28;20525;-67
2024/02/25 06:22:47;;;;;;;0.90;0.60;;;20.90;72.90;;;;;;5003558;28;20755;-67
2024/02/25 06:25:22;;;;;;;1.10;0.70;;;20.80;72.80;;;;;;5000775;28;20205;-67
2024/02/25 06:27:54;;;;;;;0.90;0.60;;;20.80;73.60;;;;;;5002550;28;20200;-67
2024/02/25 06:30:25;;;;;;;0.90;0.70;;;20.80;72.90;;;;;;5003934;28;20199;-67
2024/02/25 06:32:54;;;;;;;0.90;0.60;;;20.80;72.70;;;;;;5003353;28;20208;-67
2024/02/25 06:35:23;;;;;;;3.67;0.68;;;20.90;73.00;;;;;;4994508;28;20660;-67
2024/02/25 06:37:53;;;;;;;1.58;0.80;;;20.80;72.80;;;;;;4997541;28;20766;-67
2024/02/25 06:40:22;;;;;;;1.00;0.70;;;20.80;72.80;;;;;;5001854;28;20564;-67
2024/02/25 06:42:53;;;;;;;0.90;0.70;;;20.80;72.80;;;;;;5005011;28;20531;-67
2024/02/25 06:45:22;;;;;;;0.90;0.60;;;20.80;72.90;;;;;;5003548;28;20203;-67
2024/02/25 06:47:54;;;;;;;0.90;0.70;;;20.80;72.70;;;;;;4998900;28;20207;-67
2024/02/25 06:50:26;;;;;;;0.82;0.60;;;20.80;72.90;;;;;;5004427;28;20203;-67
2024/02/25 06:52:52;;;;;;;1.65;0.80;;;20.80;72.80;;;;;;5001969;28;20744;-66
2024/02/25 06:55:27;;;;;;;1.00;0.70;;;20.80;73.00;;;;;;5002944;28;20199;-66
2024/02/25 06:57:54;;;;;;;0.90;0.60;;;20.80;73.00;;;;;;4993943;28;20206;-67
2024/02/25 07:00:20;;;;;;;6.10;0.85;;;20.80;73.10;;;;;;5004754;28;20219;-67
2024/02/25 07:02:47;;;;;;;1.58;0.77;;;20.80;73.20;;;;;;5005499;28;20188;-66
2024/02/25 07:05:19;;;;;;;1.00;0.70;;;20.80;73.20;;;;;;5002354;28;20202;-67
2024/02/25 07:07:52;;;;;;;0.90;0.70;;;20.80;73.20;;;;;;5002819;28;20196;-66
2024/02/25 07:10:21;;;;;;;1.00;0.88;;;20.80;73.00;;;;;;5004285;28;20207;-66
2024/02/25 07:12:50;;;;;;;1.00;0.70;;;20.80;73.20;;;;;;5003622;28;20230;-66
2024/02/25 07:15:20;;;;;;;0.80;0.50;;;20.70;71.60;;;;;;5002250;28;20205;-67
2024/02/25 07:17:47;;;;;;;0.88;0.60;;;20.60;73.10;;;;;;5004083;28;20203;-66
2024/02/25 07:20:21;;;;;;;5.15;0.73;;;20.60;72.40;;;;;;5004086;28;20246;-66
2024/02/25 07:22:50;;;;;;;0.90;0.70;;;20.60;72.40;;;;;;5002178;28;20203;-67
2024/02/25 07:25:17;;;;;;;0.90;0.70;;;20.70;72.50;;;;;;5002043;28;20420;-67
2024/02/25 07:27:43;;;;;;;0.90;0.68;;;20.70;72.50;;;;;;5003748;28;20196;-67
2024/02/25 07:30:11;;;;;;;0.93;0.60;;;20.70;72.50;;;;;;5003273;28;20204;-68
2024/02/25 07:32:39;;;;;;;0.90;0.60;;;20.70;72.60;;;;;;4993965;28;20204;-68
2024/02/25 07:35:10;;;;;;;1.00;0.60;;;20.70;72.60;;;;;;5003276;28;20193;-71
2024/02/25 07:37:44;;;;;;;1.00;0.60;;;20.70;72.50;;;;;;5000068;28;20572;-67
2024/02/25 07:40:14;;;;;;;0.95;0.70;;;20.70;72.50;;;;;;4998790;28;20652;-68
2024/02/25 07:42:44;;;;;;;0.90;0.60;;;20.70;72.50;;;;;;5002296;28;20227;-68
2024/02/25 07:45:13;;;;;;;1.00;0.70;;;20.70;72.30;;;;;;4999161;28;20521;-68
2024/02/25 07:47:40;;;;;;;1.20;0.90;;;20.70;72.30;;;;;;5001435;28;20883;-68
2024/02/25 07:50:08;;;;;;;1.00;0.70;;;20.70;72.20;;;;;;4998432;28;21122;-70
2024/02/25 07:52:38;;;;;;;0.90;0.75;;;20.80;72.10;;;;;;4997489;28;20200;-67
2024/02/25 07:55:08;;;;;;;0.90;0.60;;;20.80;71.80;;;;;;5000596;28;21005;-67
2024/02/25 07:57:40;;;;;;;1.33;0.73;;;20.90;72.20;;;;;;5001205;28;20199;-69
2024/02/25 08:00:08;;;;;;;5.32;1.00;;;20.90;72.30;;;;;;5000325;28;20211;-70
2024/02/25 08:02:36;;;;;;;1.10;0.70;;;20.90;72.50;;;;;;4997479;28;20274;-72
2024/02/25 08:05:08;;;;;;;1.20;0.90;;;20.90;72.70;;;;;;4994403;28;20876;-71
2024/02/25 08:07:35;;;;;;;1.05;0.60;;;20.90;72.90;;;;;;5004324;28;20232;-72
2024/02/25 08:10:03;;;;;;;1.70;0.70;;;20.90;73.10;;;;;;5003747;28;20203;-72
2024/02/25 08:12:36;;;;;;;1.00;0.65;;;20.90;73.20;;;;;;5001202;28;20536;-72
2024/02/25 08:15:03;;;;;;;1.30;0.70;;;21.00;73.50;;;;;;5002787;28;20200;-73
2024/02/25 08:17:43;;;;;;;3.25;0.90;;;21.00;73.50;;;;;;5003275;28;20219;-70
2024/02/25 08:20:16;;;;;;;1.10;0.70;;;21.00;73.70;;;;;;5003665;28;20205;-69
2024/02/25 08:22:46;;;;;;;1.00;0.73;;;21.00;73.50;;;;;;4996933;28;20223;-68
2024/02/25 08:25:18;;;;;;;0.98;0.70;;;21.10;73.80;;;;;;5002111;28;20204;-70
2024/02/25 08:27:47;;;;;;;0.88;0.60;;;21.10;73.70;;;;;;5000823;28;20287;-66
2024/02/25 08:30:24;;;;;;;0.80;0.50;;;21.10;73.70;;;;;;4997401;28;20200;-64
2024/02/25 08:32:53;;;;;;;1.38;0.80;;;21.10;73.90;;;;;;5000720;28;20643;-70
2024/02/25 08:35:25;;;;;;;0.80;0.60;;;21.10;74.00;;;;;;4999344;28;20196;-72
2024/02/25 08:37:57;;;;;;;0.90;0.60;;;21.20;74.00;;;;;;4997426;28;20220;-67
2024/02/25 08:40:26;;;;;;;1.00;0.63;;;21.20;74.00;;;;;;4999133;28;20199;-67
2024/02/25 08:43:18;;;;;;;;;;;;;;;;;;;;;
2024/02/25 08:45:54;;;;;;;1.00;0.70;;;21.20;73.30;;;;;;4998733;28;20643;-66
2024/02/25 08:48:32;;;;;;;1.67;0.70;;;21.20;73.40;;;;;;5001418;28;20453;-66
2024/02/25 08:51:01;;;;;;;0.90;0.60;;;21.20;73.20;;;;;;5001672;28;20200;-66
2024/02/25 08:53:30;;;;;;;1.10;0.60;;;21.20;73.10;;;;;;5008455;28;20788;-69
2024/02/25 08:56:01;;;;;;;0.90;0.60;;;21.20;73.00;;;;;;5010026;28;20458;-69
2024/02/25 08:58:33;;;;;;;0.90;0.60;;;21.30;74.20;;;;;;5007914;28;20200;-69
2024/02/25 09:01:00;;;;;;;1.98;0.80;;;21.30;73.40;;;;;;5006554;28;20205;-69
2024/02/25 09:03:34;;;;;;;2.05;0.70;;;21.30;73.40;;;;;;5004512;28;20196;-69
2024/02/25 09:06:03;;;;;;;1.20;0.70;;;21.30;73.30;;;;;;5005442;28;20199;-69
2024/02/25 09:08:30;;;;;;;0.83;0.60;;;21.30;73.20;;;;;;5008069;28;20196;-69
2024/02/25 09:11:02;;;;;;;0.90;0.60;;;21.30;73.20;;;;;;5010830;28;20755;-69
2024/02/25 09:13:32;;;;;;;0.93;0.70;;;21.30;73.10;;;;;;5007153;28;20459;-69
2024/02/25 09:16:02;;;;;;;0.93;0.70;;;21.40;73.20;;;;;;5005461;28;20911;-69
2024/02/25 09:18:32;;;;;;;0.80;0.60;;;21.40;73.10;;;;;;5007629;28;21025;-69
2024/02/25 09:23:52;;;;;;;0.90;0.60;;;21.40;73.00;;;;;;5010626;28;20454;-69
2024/02/25 09:26:25;;;;;;;0.90;0.60;;;21.50;73.10;;;;;;5011167;28;20274;-69
2024/02/25 09:28:59;;;;;;;1.00;0.70;;;21.40;72.90;;;;;;5010105;28;20222;-69
2024/02/25 09:31:30;;;;;;;0.80;0.60;;;21.50;72.90;;;;;;4997906;28;20206;-69
2024/02/25 09:34:02;;;;;;;1.07;0.70;;;21.50;72.80;;;;;;5011604;28;20875;-69
2024/02/25 09:36:36;;;;;;;0.90;0.60;;;21.50;72.80;;;;;;5007813;28;20490;-69
2024/02/25 09:39:15;;;;;;;;;;;;;;;;;;;;;
2024/02/25 09:41:48;;;;;;;0.90;0.67;;;21.50;72.70;;;;;;5004416;28;20862;-69
2024/02/25 09:44:24;;;;;;;0.90;0.70;;;21.60;72.70;;;;;;5010795;28;20450;-69
2024/02/25 09:46:56;;;;;;;0.87;0.60;;;21.60;72.60;;;;;;5006463;28;20466;-69
2024/02/25 09:49:30;;;;;;;0.90;0.70;;;21.60;72.60;;;;;;5007788;28;20461;-69
2024/02/25 09:52:02;;;;;;;1.03;0.70;;;21.70;72.60;;;;;;4995066;28;20203;-69
2024/02/25 09:54:36;;;;;;;0.90;0.70;;;21.60;72.50;;;;;;5007038;28;20462;-69
2024/02/25 09:57:12;;;;;;;0.90;0.70;;;21.60;72.30;;;;;;5000355;28;20462;-69
2024/02/25 09:59:44;;;;;;;1.93;0.80;;;21.70;72.40;;;;;;5007337;28;20470;-69
2024/02/25 10:02:14;;;;;;;0.90;0.60;;;21.70;72.40;;;;;;5006856;28;20905;-69
2024/02/25 10:04:42;;;;;;;0.90;0.60;;;21.70;72.20;;;;;;5005673;28;20462;-70
2024/02/25 10:07:16;;;;;;;0.90;0.60;;;21.70;72.20;;;;;;5000216;28;20498;-69
2024/02/25 10:10:02;;;;;;;1.00;0.70;;;21.70;72.20;;;;;;5003420;28;21044;-71
2024/02/25 10:12:33;;;;;;;0.90;0.60;;;21.70;72.00;;;;;;5004000;28;20464;-72
2024/02/25 10:15:06;;;;;;;0.90;0.57;;;21.80;72.20;;;;;;5003145;28;21369;-71
2024/02/25 10:17:33;;;;;;;0.90;0.60;;;21.80;72.20;;;;;;5002504;28;20200;-71
2024/02/25 10:20:01;;;;;;;0.90;0.70;;;21.80;72.20;;;;;;5003802;28;20470;-67
2024/02/25 10:22:43;;;;;;;0.90;0.70;;;21.80;72.30;;;;;;5007981;28;20483;-66
2024/02/25 10:25:14;;;;;;;1.13;0.70;;;21.80;72.30;;;;;;4995377;28;20463;-66
2024/02/25 10:27:47;;;;;;;1.80;0.80;;;21.90;72.40;;;;;;5000497;28;20463;-65
2024/02/25 10:30:15;;;;;;;0.90;0.60;;;21.90;72.50;;;;;;5001649;28;20481;-67
2024/02/25 10:32:43;;;;;;;1.00;0.80;;;21.90;72.40;;;;;;5001709;28;20474;-69
2024/02/25 10:35:29;;;;;;;1.30;0.60;;;21.90;72.40;;;;;;5003956;28;20462;-67
2024/02/25 10:38:00;;;;;;;0.90;0.60;;;21.90;72.50;;;;;;5008253;28;20809;-65
2024/02/25 10:40:29;;;;;;;0.90;0.60;;;21.90;72.50;;;;;;4999098;28;20570;-64
2024/02/25 10:43:06;;;;;;;0.80;0.50;;;21.90;72.50;;;;;;4998903;28;20475;-66
2024/02/25 10:45:39;;;;;;;1.87;0.70;;;21.90;72.50;;;;;;5005897;28;20465;-72
2024/02/25 10:48:08;;;;;;;0.80;0.53;;;22.00;72.60;;;;;;4995844;28;20459;-71
2024/02/25 10:50:41;;;;;;;0.90;0.70;;;22.00;72.60;;;;;;4995288;28;20462;-67
2024/02/25 10:53:14;;;;;;;0.90;0.60;;;22.00;72.60;;;;;;5000032;28;20459;-75
2024/02/25 10:55:43;;;;;;;0.90;0.60;;;22.00;72.60;;;;;;4993484;28;20463;-71
2024/02/25 10:58:16;;;;;;;0.90;0.60;;;22.00;72.60;;;;;;5004235;28;21029;-73
2024/02/25 11:00:56;;;;;;;0.90;0.60;;;22.00;72.50;;;;;;4997848;28;20467;-73
2024/02/25 11:03:28;;;;;;;1.00;0.70;;;22.00;72.50;;;;;;4998426;28;20570;-72
2024/02/25 11:06:06;;;;;;;1.57;0.70;;;22.00;72.40;;;;;;5003817;28;20462;-72
2024/02/25 11:08:42;;;;;;;1.00;0.70;;;22.00;72.40;;;;;;5006627;28;20815;-70
2024/02/25 11:11:14;;;;;;;0.80;0.60;;;22.00;72.40;;;;;;5001276;28;20454;-70
2024/02/25 11:14:03;;;;;;;1.00;0.60;;;22.00;72.50;;;;;;5001584;28;20505;-72
2024/02/25 11:16:39;;;;;;;1.40;0.80;;;22.00;72.50;;;;;;5007377;28;21029;-69
2024/02/25 11:19:08;;;;;;;0.90;0.60;;;22.00;72.40;;;;;;5003506;28;21016;-69
2024/02/25 11:21:44;;;;;;;0.93;0.70;;;22.00;72.30;;;;;;5005413;28;20254;-70
2024/02/25 11:24:54;;;;;;;0.80;0.50;;;22.00;72.40;;;;;;5000612;28;20465;-71
2024/02/25 11:27:36;;;;;;;3.47;0.68;;;22.00;72.40;;;;;;5003750;28;20800;-69
2024/02/25 11:30:23;;;;;;;0.83;0.53;;;22.00;72.50;;;;;;4997562;28;20612;-69
2024/02/25 11:33:00;;;;;;;1.10;0.70;;;22.10;72.50;;;;;;4998810;28;20459;-67
2024/02/25 11:35:36;;;;;;;0.80;0.60;;;22.00;72.50;;;;;;4998408;28;20501;-71
2024/02/25 11:38:09;;;;;;;1.10;1.00;;;22.10;72.80;;;;;;5001589;28;20473;-68
2024/02/25 11:40:39;;;;;;;0.80;0.53;;;22.10;72.90;;;;;;4999416;28;20467;-69
2024/02/25 11:43:11;;;;;;;1.40;0.70;;;22.10;72.60;;;;;;5002055;28;20470;-72
2024/02/25 11:45:47;;;;;;;0.90;0.60;;;22.10;72.50;;;;;;4995021;28;20501;-69
2024/02/25 11:48:30;;;;;;;0.90;0.60;;;22.10;72.30;;;;;;5002768;28;20462;-68
2024/02/25 11:50:57;;;;;;;0.80;0.57;;;22.00;71.30;;;;;;4999704;28;20470;-70
2024/02/25 11:53:30;;;;;;;1.30;0.80;;;22.00;71.40;;;;;;4999816;28;20477;-68
2024/02/25 11:55:59;;;;;;;1.37;0.60;;;22.00;71.50;;;;;;5002583;28;20468;-74
2024/02/25 11:58:38;;;;;;;1.00;0.70;;;22.00;71.50;;;;;;5006205;28;20877;-69
2024/02/25 12:01:16;;;;;;;0.97;0.60;;;22.00;71.50;;;;;;5004262;28;20453;-73
2024/02/25 12:03:47;;;;;;;1.97;0.70;;;22.00;70.90;;;;;;4996855;28;20490;-73
2024/02/25 12:06:38;;;;;;;4.20;0.83;;;22.00;71.20;;;;;;4999887;28;20466;-79
2024/02/25 12:09:30;;;;;;;1.20;0.80;;;21.90;69.20;;;;;;5004546;28;20636;-73
2024/02/25 12:12:02;;;;;;;1.10;0.70;;;21.90;70.00;;;;;;4999827;28;20469;-71
2024/02/25 12:14:40;;;;;;;1.20;0.90;;;21.90;70.00;;;;;;5002178;28;20471;-67
2024/02/25 12:17:22;;;;;;;0.87;0.60;;;22.00;70.40;;;;;;5003255;28;20498;-66
2024/02/25 12:20:03;;;;;;;2.47;0.70;;;22.10;70.30;;;;;;4999653;28;20808;-70
2024/02/25 12:22:35;;;;;;;1.20;0.73;;;22.10;70.30;;;;;;5002011;28;20517;-70
2024/02/25 12:25:04;;;;;;;0.90;0.60;;;22.10;70.30;;;;;;5005219;28;20461;-69
2024/02/25 12:27:34;;;;;;;0.97;0.63;;;22.10;70.10;;;;;;5007636;28;20469;-66
2024/02/25 12:30:03;;;;;;;1.07;0.70;;;22.10;70.20;;;;;;5002162;28;20999;-72
2024/02/25 12:32:39;;;;;;;2.80;0.70;;;22.10;70.00;;;;;;5004423;28;20971;-63
2024/02/25 12:35:13;;;;;;;1.00;0.70;;;22.20;70.20;;;;;;5003740;28;21059;-66
2024/02/25 12:37:48;;;;;;;1.10;0.70;;;22.20;70.20;;;;;;5002984;28;20462;-68
2024/02/25 12:40:23;;;;;;;3.63;0.77;;;22.20;70.40;;;;;;5003820;28;21045;-69
2024/02/25 12:42:53;;;;;;;1.10;0.67;;;22.20;69.90;;;;;;5003546;28;20564;-73
2024/02/25 12:45:22;;;;;;;0.80;0.60;;;22.20;70.10;;;;;;4995188;28;20458;-68
2024/02/25 12:47:52;;;;;;;1.00;0.70;;;22.10;70.00;;;;;;5000041;28;20454;-72
2024/02/25 12:50:24;;;;;;;0.90;0.60;;;22.20;70.20;;;;;;4993385;28;20558;-71
2024/02/25 12:53:00;;;;;;;1.00;0.60;;;22.20;70.40;;;;;;5001879;28;20469;-67
2024/02/25 12:55:29;;;;;;;6.27;0.70;;;22.10;69.70;;;;;;5004307;28;20494;-68
2024/02/25 12:57:57;;;;;;;1.07;0.60;;;22.10;70.20;;;;;;5005996;28;20497;-75
2024/02/25 13:00:31;;;;;;;1.50;1.10;;;22.10;70.20;;;;;;5003680;28;20462;-71
2024/02/25 13:03:05;;;;;;;1.53;0.90;;;22.10;70.40;;;;;;5000724;28;20491;-72
2024/02/25 13:05:37;;;;;;;1.00;0.60;;;22.20;70.80;;;;;;5003141;28;20710;-72
2024/02/25 13:08:23;;;;;;;1.93;0.80;;;22.20;70.80;;;;;;5004162;28;20442;-70
2024/02/25 13:10:58;;;;;;;1.67;0.70;;;22.20;70.90;;;;;;4995495;28;20450;-70
2024/02/25 13:13:34;;;;;;;9.73;1.00;;;22.20;70.60;;;;;;5004782;28;20852;-72
2024/02/25 13:16:16;;;;;;;3.90;0.90;;;22.20;70.20;;;;;;5005063;28;20507;-66
2024/02/25 13:18:58;;;;;;;0.80;0.60;;;22.10;70.10;;;;;;5003919;28;20454;-71
2024/02/25 13:21:43;;;;;;;0.90;0.53;;;22.10;70.30;;;;;;5000198;28;20504;-73
2024/02/25 13:24:12;;;;;;;1.43;1.13;;;22.20;70.40;;;;;;5003016;28;21061;-70